sensor_id;sensor_type;location;lat;lon;timestamp;P1;durP1;ratioP1;P2;durP2;ratioP2
71902;SDS011;59778;50.310;18.780;2023-12-07T00:06:21;105.03;;;35.13;;
71902;SDS011;59778;50.310;18.780;2023-12-07T00:21:43;110.27;;;33.90;;
71902;SDS011;59778;50.310;18.780;2023-12-07T00:37:04;85.23;;;28.60;;
71902;SDS011;59778;50.310;18.780;2023-12-07T00:52:25;78.97;;;27.40;;
71902;SDS011;59778;50.310;18.780;2023-12-07T01:07:47;88.97;;;29.27;;
71902;SDS011;59778;50.310;18.780;2023-12-07T01:23:08;77.40;;;28.70;;
71902;SDS011;59778;50.310;18.780;2023-12-07T01:38:31;86.63;;;29.00;;
71902;SDS011;59778;50.310;18.780;2023-12-07T01:53:52;77.73;;;25.90;;
71902;SDS011;59778;50.310;18.780;2023-12-07T02:09:13;109.27;;;35.13;;
71902;SDS011;59778;50.310;18.780;2023-12-07T02:24:34;74.77;;;25.60;;
71902;SDS011;59778;50.310;18.780;2023-12-07T02:39:58;77.33;;;25.43;;
71902;SDS011;59778;50.310;18.780;2023-12-07T02:55:19;78.27;;;26.50;;
71902;SDS011;59778;50.310;18.780;2023-12-07T03:10:41;85.10;;;26.13;;
71902;SDS011;59778;50.310;18.780;2023-12-07T03:26:02;94.33;;;29.20;;
71902;SDS011;59778;50.310;18.780;2023-12-07T03:41:23;87.20;;;27.73;;
71902;SDS011;59778;50.310;18.780;2023-12-07T03:56:44;104.40;;;31.27;;
71902;SDS011;59778;50.310;18.780;2023-12-07T04:12:06;106.70;;;31.93;;
71902;SDS011;59778;50.310;18.780;2023-12-07T04:27:27;97.10;;;29.53;;
71902;SDS011;59778;50.310;18.780;2023-12-07T04:42:48;100.70;;;31.73;;
71902;SDS011;59778;50.310;18.780;2023-12-07T04:58:09;87.70;;;26.93;;
71902;SDS011;59778;50.310;18.780;2023-12-07T05:13:31;92.77;;;27.80;;
71902;SDS011;59778;50.310;18.780;2023-12-07T05:28:54;77.87;;;26.00;;
71902;SDS011;59778;50.310;18.780;2023-12-07T05:44:15;110.33;;;32.73;;
71902;SDS011;59778;50.310;18.780;2023-12-07T05:59:42;105.70;;;34.23;;
71902;SDS011;59778;50.310;18.780;2023-12-07T06:15:04;102.40;;;33.17;;
71902;SDS011;59778;50.310;18.780;2023-12-07T06:30:28;106.37;;;33.63;;
71902;SDS011;59778;50.310;18.780;2023-12-07T06:45:50;111.53;;;35.33;;
71902;SDS011;59778;50.310;18.780;2023-12-07T07:01:11;112.70;;;37.47;;
71902;SDS011;59778;50.310;18.780;2023-12-07T07:16:34;116.47;;;39.23;;
71902;SDS011;59778;50.310;18.780;2023-12-07T07:31:55;106.03;;;35.80;;
71902;SDS011;59778;50.310;18.780;2023-12-07T07:47:17;115.50;;;36.13;;
71902;SDS011;59778;50.310;18.780;2023-12-07T08:02:38;108.97;;;36.50;;
71902;SDS011;59778;50.310;18.780;2023-12-07T08:18:00;120.60;;;39.30;;
71902;SDS011;59778;50.310;18.780;2023-12-07T08:33:21;130.40;;;40.83;;
71902;SDS011;59778;50.310;18.780;2023-12-07T08:48:42;110.47;;;35.53;;
71902;SDS011;59778;50.310;18.780;2023-12-07T09:04:05;134.33;;;42.90;;
71902;SDS011;59778;50.310;18.780;2023-12-07T09:19:27;134.90;;;42.60;;
71902;SDS011;59778;50.310;18.780;2023-12-07T09:34:48;128.63;;;42.33;;
71902;SDS011;59778;50.310;18.780;2023-12-07T09:50:12;130.97;;;42.93;;
71902;SDS011;59778;50.310;18.780;2023-12-07T10:05:33;125.97;;;39.63;;
71902;SDS011;59778;50.310;18.780;2023-12-07T10:20:55;128.03;;;38.37;;
71902;SDS011;59778;50.310;18.780;2023-12-07T10:36:16;119.57;;;39.07;;
71902;SDS011;59778;50.310;18.780;2023-12-07T10:51:38;111.57;;;36.60;;
71902;SDS011;59778;50.310;18.780;2023-12-07T11:07:03;124.53;;;39.30;;
71902;SDS011;59778;50.310;18.780;2023-12-07T11:22:25;107.40;;;35.30;;
71902;SDS011;59778;50.310;18.780;2023-12-07T11:53:28;105.60;;;33.97;;
71902;SDS011;59778;50.310;18.780;2023-12-07T12:08:50;102.83;;;33.93;;
71902;SDS011;59778;50.310;18.780;2023-12-07T12:24:13;98.10;;;32.83;;
71902;SDS011;59778;50.310;18.780;2023-12-07T12:39:34;114.03;;;40.33;;
71902;SDS011;59778;50.310;18.780;2023-12-07T12:54:56;104.03;;;35.70;;
71902;SDS011;59778;50.310;18.780;2023-12-07T13:10:18;93.10;;;31.40;;
71902;SDS011;59778;50.310;18.780;2023-12-07T13:25:39;93.80;;;30.63;;
71902;SDS011;59778;50.310;18.780;2023-12-07T13:41:02;71.73;;;26.80;;
71902;SDS011;59778;50.310;18.780;2023-12-07T13:56:23;64.30;;;25.40;;
71902;SDS011;59778;50.310;18.780;2023-12-07T14:11:44;79.43;;;26.47;;
71902;SDS011;59778;50.310;18.780;2023-12-07T14:27:06;76.23;;;28.00;;
71902;SDS011;59778;50.310;18.780;2023-12-07T14:42:27;79.77;;;29.83;;
71902;SDS011;59778;50.310;18.780;2023-12-07T14:57:48;84.20;;;30.33;;
71902;SDS011;59778;50.310;18.780;2023-12-07T15:13:11;95.07;;;31.73;;
71902;SDS011;59778;50.310;18.780;2023-12-07T15:28:33;98.97;;;33.80;;
71902;SDS011;59778;50.310;18.780;2023-12-07T15:43:54;121.73;;;39.07;;
71902;SDS011;59778;50.310;18.780;2023-12-07T15:59:15;99.37;;;33.37;;
71902;SDS011;59778;50.310;18.780;2023-12-07T16:14:37;133.17;;;43.07;;
71902;SDS011;59778;50.310;18.780;2023-12-07T16:29:58;108.20;;;36.53;;
71902;SDS011;59778;50.310;18.780;2023-12-07T16:45:20;99.20;;;36.27;;
71902;SDS011;59778;50.310;18.780;2023-12-07T17:00:41;127.80;;;41.70;;
71902;SDS011;59778;50.310;18.780;2023-12-07T17:16:03;134.43;;;44.40;;
71902;SDS011;59778;50.310;18.780;2023-12-07T17:31:24;137.00;;;45.50;;
71902;SDS011;59778;50.310;18.780;2023-12-07T17:46:46;124.50;;;43.70;;
71902;SDS011;59778;50.310;18.780;2023-12-07T18:02:08;121.97;;;44.20;;
71902;SDS011;59778;50.310;18.780;2023-12-07T18:17:29;100.60;;;35.03;;
71902;SDS011;59778;50.310;18.780;2023-12-07T18:32:50;105.17;;;39.33;;
71902;SDS011;59778;50.310;18.780;2023-12-07T18:48:11;102.00;;;37.33;;
71902;SDS011;59778;50.310;18.780;2023-12-07T19:03:33;104.67;;;38.13;;
71902;SDS011;59778;50.310;18.780;2023-12-07T19:18:54;155.07;;;55.97;;
71902;SDS011;59778;50.310;18.780;2023-12-07T19:34:16;174.17;;;60.27;;
71902;SDS011;59778;50.310;18.780;2023-12-07T19:49:39;193.40;;;62.40;;
71902;SDS011;59778;50.310;18.780;2023-12-07T20:05:04;194.70;;;64.33;;
71902;SDS011;59778;50.310;18.780;2023-12-07T20:20:25;180.37;;;62.17;;
71902;SDS011;59778;50.310;18.780;2023-12-07T20:35:47;202.97;;;67.63;;
71902;SDS011;59778;50.310;18.780;2023-12-07T20:51:08;215.90;;;69.20;;
71902;SDS011;59778;50.310;18.780;2023-12-07T21:06:29;197.43;;;65.07;;
71902;SDS011;59778;50.310;18.780;2023-12-07T21:21:51;213.33;;;69.67;;
71902;SDS011;59778;50.310;18.780;2023-12-07T21:37:12;230.63;;;80.97;;
71902;SDS011;59778;50.310;18.780;2023-12-07T21:52:33;224.30;;;72.77;;
71902;SDS011;59778;50.310;18.780;2023-12-07T22:07:54;220.83;;;74.97;;
71902;SDS011;59778;50.310;18.780;2023-12-07T22:23:15;203.60;;;70.47;;
71902;SDS011;59778;50.310;18.780;2023-12-07T22:38:37;251.73;;;79.07;;
71902;SDS011;59778;50.310;18.780;2023-12-07T22:53:59;248.47;;;81.37;;
71902;SDS011;59778;50.310;18.780;2023-12-07T23:09:20;263.53;;;80.93;;
71902;SDS011;59778;50.310;18.780;2023-12-07T23:24:42;268.17;;;76.77;;
71902;SDS011;59778;50.310;18.780;2023-12-07T23:40:03;256.17;;;77.40;;
71902;SDS011;59778;50.310;18.780;2023-12-07T23:55:25;229.87;;;70.80;;
